sensor_id;sensor_type;location;lat;lon;timestamp;pressure;altitude;pressure_sealevel;temperature;humidity
77879;BME280;67071;51.144;17.050;2023-03-01T14:44:21;101381.22;;;24.11;17.31
77879;BME280;67071;51.144;17.050;2023-03-01T14:47:30;101374.20;;;24.04;17.61
77879;BME280;67071;51.144;17.050;2023-03-01T14:50:46;101367.40;;;23.26;18.33
77879;BME280;67071;51.144;17.050;2023-03-01T14:54:18;101364.42;;;23.31;18.87
77879;BME280;67071;51.144;17.050;2023-03-01T14:57:36;101359.88;;;23.35;18.99
77879;BME280;67071;51.144;17.050;2023-03-01T15:00:58;101363.95;;;23.24;18.82
77879;BME280;67071;51.144;17.050;2023-03-01T15:04:26;101370.53;;;23.07;19.31
77879;BME280;67071;51.144;17.050;2023-03-01T15:11:28;101373.83;;;22.88;19.50
77879;BME280;67071;51.144;17.050;2023-03-01T15:14:48;101373.13;;;22.63;19.75
77879;BME280;67071;51.144;17.050;2023-03-01T15:21:36;101367.76;;;22.03;20.22
77879;BME280;67071;51.144;17.050;2023-03-01T15:24:59;101373.86;;;21.63;20.38
77879;BME280;67071;51.144;17.050;2023-03-01T15:28:20;101374.54;;;21.05;20.02
77879;BME280;67071;51.144;17.050;2023-03-01T15:31:39;101370.59;;;20.65;20.83
77879;BME280;67071;51.144;17.050;2023-03-01T15:34:57;101366.31;;;20.59;21.29
77879;BME280;67071;51.144;17.050;2023-03-01T15:41:47;101365.53;;;19.59;21.93
77879;BME280;67071;51.144;17.050;2023-03-01T15:45:28;101363.25;;;19.21;21.50
77879;BME280;67071;51.144;17.050;2023-03-01T15:48:47;101360.20;;;18.93;22.49
77879;BME280;67071;51.144;17.050;2023-03-01T15:52:12;101366.62;;;18.79;22.86
77879;BME280;67071;51.144;17.050;2023-03-01T15:55:33;101373.06;;;18.56;23.35
77879;BME280;67071;51.144;17.050;2023-03-01T15:59:00;101379.87;;;18.30;23.49
77879;BME280;67071;51.144;17.050;2023-03-01T16:02:21;101390.17;;;17.89;24.03
77879;BME280;67071;51.144;17.050;2023-03-01T16:05:42;101390.40;;;17.33;24.48
77879;BME280;67071;51.144;17.050;2023-03-01T16:08:58;101395.30;;;16.67;25.24
77879;BME280;67071;51.144;17.050;2023-03-01T16:12:16;101389.52;;;15.81;26.04
77879;BME280;67071;51.144;17.050;2023-03-01T16:15:35;101390.84;;;14.80;27.03
77879;BME280;67071;51.144;17.050;2023-03-01T16:18:52;101388.07;;;13.52;28.18
77879;BME280;67071;51.144;17.050;2023-03-01T16:22:10;101390.08;;;12.38;29.35
77879;BME280;67071;51.144;17.050;2023-03-01T16:25:29;101383.84;;;11.27;30.84
77879;BME280;67071;51.144;17.050;2023-03-01T16:28:46;101395.77;;;10.27;32.23
77879;BME280;67071;51.144;17.050;2023-03-01T16:32:02;101390.16;;;9.37;33.38
77879;BME280;67071;51.144;17.050;2023-03-01T16:35:20;101389.41;;;8.58;34.58
77879;BME280;67071;51.144;17.050;2023-03-01T16:38:37;101391.70;;;7.84;35.67
77879;BME280;67071;51.144;17.050;2023-03-01T16:42:04;101390.11;;;7.19;36.59
77879;BME280;67071;51.144;17.050;2023-03-01T16:45:35;101397.68;;;6.61;37.45
77879;BME280;67071;51.144;17.050;2023-03-01T16:48:59;101402.30;;;6.08;38.83
77879;BME280;67071;51.144;17.050;2023-03-01T16:52:19;101407.56;;;5.61;39.68
77879;BME280;67071;51.144;17.050;2023-03-01T16:55:36;101411.32;;;5.18;40.14
77879;BME280;67071;51.144;17.050;2023-03-01T16:58:56;101412.30;;;4.82;40.49
77879;BME280;67071;51.144;17.050;2023-03-01T17:02:13;101412.60;;;4.47;41.33
77879;BME280;67071;51.144;17.050;2023-03-01T17:05:30;101411.51;;;4.15;42.13
77879;BME280;67071;51.144;17.050;2023-03-01T17:08:46;101410.41;;;3.87;42.84
77879;BME280;67071;51.144;17.050;2023-03-01T17:12:55;101409.34;;;3.54;43.47
77879;BME280;67071;51.144;17.050;2023-03-01T17:16:20;101416.55;;;3.33;43.18
77879;BME280;67071;51.144;17.050;2023-03-01T17:19:44;101416.46;;;3.14;43.24
77879;BME280;67071;51.144;17.050;2023-03-01T17:23:09;101412.21;;;2.95;43.84
77879;BME280;67071;51.144;17.050;2023-03-01T17:26:35;101406.94;;;2.77;44.38
77879;BME280;67071;51.144;17.050;2023-03-01T17:30:11;101416.46;;;2.59;45.11
77879;BME280;67071;51.144;17.050;2023-03-01T17:33:30;101416.73;;;2.42;45.70
77879;BME280;67071;51.144;17.050;2023-03-01T17:36:54;101413.82;;;2.27;45.98
77879;BME280;67071;51.144;17.050;2023-03-01T17:40:23;101414.68;;;2.13;47.28
77879;BME280;67071;51.144;17.050;2023-03-01T17:43:42;101416.59;;;1.98;47.73
77879;BME280;67071;51.144;17.050;2023-03-01T17:47:04;101414.79;;;1.84;48.25
77879;BME280;67071;51.144;17.050;2023-03-01T17:50:20;101410.25;;;1.66;47.97
77879;BME280;67071;51.144;17.050;2023-03-01T17:53:37;101409.05;;;1.51;48.21
77879;BME280;67071;51.144;17.050;2023-03-01T17:56:55;101410.62;;;1.38;47.93
77879;BME280;67071;51.144;17.050;2023-03-01T18:00:13;101412.34;;;1.28;48.48
77879;BME280;67071;51.144;17.050;2023-03-01T18:03:33;101409.30;;;1.16;49.25
77879;BME280;67071;51.144;17.050;2023-03-01T18:06:52;101410.77;;;1.04;49.79
77879;BME280;67071;51.144;17.050;2023-03-01T18:14:08;101411.26;;;0.82;50.26
77879;BME280;67071;51.144;17.050;2023-03-01T18:17:24;101420.80;;;0.76;50.97
77879;BME280;67071;51.144;17.050;2023-03-01T18:20:40;101414.02;;;0.70;50.93
77879;BME280;67071;51.144;17.050;2023-03-01T18:24:07;101401.40;;;0.64;51.03
77879;BME280;67071;51.144;17.050;2023-03-01T18:27:24;101402.73;;;0.56;50.93
77879;BME280;67071;51.144;17.050;2023-03-01T18:30:41;101412.87;;;0.50;50.97
77879;BME280;67071;51.144;17.050;2023-03-01T18:33:58;101411.11;;;0.42;50.94
77879;BME280;67071;51.144;17.050;2023-03-01T18:37:15;101407.49;;;0.35;50.93
77879;BME280;67071;51.144;17.050;2023-03-01T18:40:40;101414.06;;;0.28;51.48
77879;BME280;67071;51.144;17.050;2023-03-01T18:43:57;101411.85;;;0.21;52.01
77879;BME280;67071;51.144;17.050;2023-03-01T18:47:13;101414.15;;;0.12;52.42
77879;BME280;67071;51.144;17.050;2023-03-01T18:50:30;101410.32;;;0.04;52.44
77879;BME280;67071;51.144;17.050;2023-03-01T18:53:46;101403.55;;;-0.07;54.24
77879;BME280;67071;51.144;17.050;2023-03-01T18:57:02;101413.43;;;-0.16;53.65
77879;BME280;67071;51.144;17.050;2023-03-01T19:00:20;101403.84;;;-0.25;54.07
77879;BME280;67071;51.144;17.050;2023-03-01T19:03:38;101393.80;;;-0.34;55.23
77879;BME280;67071;51.144;17.050;2023-03-01T19:06:54;101392.10;;;-0.42;55.37
77879;BME280;67071;51.144;17.050;2023-03-01T19:10:11;101391.23;;;-0.50;55.24
77879;BME280;67071;51.144;17.050;2023-03-01T19:13:27;101389.70;;;-0.60;55.28
77879;BME280;67071;51.144;17.050;2023-03-01T19:16:44;101385.51;;;-0.70;55.73
77879;BME280;67071;51.144;17.050;2023-03-01T19:19:59;101388.70;;;-0.78;56.30
77879;BME280;67071;51.144;17.050;2023-03-01T19:23:15;101383.41;;;-0.86;56.01
77879;BME280;67071;51.144;17.050;2023-03-01T19:26:36;101388.76;;;-0.94;56.45
77879;BME280;67071;51.144;17.050;2023-03-01T19:29:52;101385.19;;;-1.02;56.20
77879;BME280;67071;51.144;17.050;2023-03-01T19:33:10;101393.11;;;-1.09;55.48
77879;BME280;67071;51.144;17.050;2023-03-01T19:36:30;101383.58;;;-1.15;56.75
77879;BME280;67071;51.144;17.050;2023-03-01T19:39:50;101383.83;;;-1.17;56.04
77879;BME280;67071;51.144;17.050;2023-03-01T19:43:07;101386.08;;;-1.22;56.28
77879;BME280;67071;51.144;17.050;2023-03-01T19:46:32;101387.59;;;-1.27;56.79
77879;BME280;67071;51.144;17.050;2023-03-01T19:49:48;101395.72;;;-1.33;57.43
77879;BME280;67071;51.144;17.050;2023-03-01T19:53:05;101392.76;;;-1.38;57.42
77879;BME280;67071;51.144;17.050;2023-03-01T19:56:21;101396.02;;;-1.43;57.12
77879;BME280;67071;51.144;17.050;2023-03-01T19:59:38;101389.70;;;-1.50;56.98
77879;BME280;67071;51.144;17.050;2023-03-01T20:02:54;101394.52;;;-1.54;57.04
77879;BME280;67071;51.144;17.050;2023-03-01T20:06:16;101398.41;;;-1.57;57.05
77879;BME280;67071;51.144;17.050;2023-03-01T20:09:33;101400.23;;;-1.61;57.92
77879;BME280;67071;51.144;17.050;2023-03-01T20:12:50;101403.73;;;-1.65;58.10
77879;BME280;67071;51.144;17.050;2023-03-01T20:16:07;101400.83;;;-1.71;58.72
77879;BME280;67071;51.144;17.050;2023-03-01T20:19:28;101401.91;;;-1.77;58.99
77879;BME280;67071;51.144;17.050;2023-03-01T20:22:44;101402.41;;;-1.81;58.74
77879;BME280;67071;51.144;17.050;2023-03-01T20:26:24;101395.77;;;-1.85;58.62
77879;BME280;67071;51.144;17.050;2023-03-01T20:29:41;101388.28;;;-1.86;59.15
77879;BME280;67071;51.144;17.050;2023-03-01T20:32:57;101392.27;;;-1.82;59.19
77879;BME280;67071;51.144;17.050;2023-03-01T20:36:14;101383.39;;;-1.81;59.33
77879;BME280;67071;51.144;17.050;2023-03-01T20:39:30;101384.82;;;-1.82;59.22
77879;BME280;67071;51.144;17.050;2023-03-01T20:42:49;101382.83;;;-1.84;59.77
77879;BME280;67071;51.144;17.050;2023-03-01T20:46:09;101383.14;;;-1.87;59.62
77879;BME280;67071;51.144;17.050;2023-03-01T20:49:30;101381.88;;;-1.92;59.79
77879;BME280;67071;51.144;17.050;2023-03-01T20:52:46;101383.38;;;-1.97;60.90
77879;BME280;67071;51.144;17.050;2023-03-01T20:56:06;101379.90;;;-2.02;60.51
77879;BME280;67071;51.144;17.050;2023-03-01T20:59:25;101380.97;;;-2.08;60.48
77879;BME280;67071;51.144;17.050;2023-03-01T21:02:42;101382.21;;;-2.15;61.07
77879;BME280;67071;51.144;17.050;2023-03-01T21:06:08;101378.36;;;-2.21;61.08
77879;BME280;67071;51.144;17.050;2023-03-01T21:09:24;101379.02;;;-2.27;61.25
77879;BME280;67071;51.144;17.050;2023-03-01T21:12:40;101381.66;;;-2.35;61.23
77879;BME280;67071;51.144;17.050;2023-03-01T21:16:08;101384.39;;;-2.43;61.36
77879;BME280;67071;51.144;17.050;2023-03-01T21:19:28;101374.73;;;-2.53;61.51
77879;BME280;67071;51.144;17.050;2023-03-01T21:22:44;101390.39;;;-2.58;61.61
77879;BME280;67071;51.144;17.050;2023-03-01T21:29:26;101388.69;;;-2.67;62.16
77879;BME280;67071;51.144;17.050;2023-03-01T21:32:42;101381.72;;;-2.72;62.43
77879;BME280;67071;51.144;17.050;2023-03-01T21:36:00;101384.11;;;-2.78;62.78
77879;BME280;67071;51.144;17.050;2023-03-01T21:45:25;101375.89;;;-3.01;62.03
77879;BME280;67071;51.144;17.050;2023-03-01T21:55:21;101373.96;;;-3.16;63.05
77879;BME280;67071;51.144;17.050;2023-03-01T22:11:45;101371.30;;;-3.37;62.97
